Australian Towns and Cities METAR Reports

YMHB - Hobart/Tasmania, Australia
Distance from Franklin: NE 55km
Updated: 22/05/2018 12:00
Mostly cloudy
Mostly cloudy
 Wind from WSW
Wind: WSW 39 km/h, Gust: 57 km/h
Temperature: 13°C
Dew Point: 1°C
Humidity: 44%
Barometer: 1013 hPa
Clouds: Mostly cloudy
Visibility: 10 km
Cloud details: Mostly cloudy 1372 m
2018/05/22 02:00 YMHB 220200Z 24021G31KT 9999 BKN045 13/01 Q1013
YMLT - Launceston Airpo, Australia
Distance from Franklin: N 179km
Updated: 22/05/2018 12:30
Clear
Clear
 Wind from WSW
Wind: WSW 28 km/h
Temperature: 15°C
Dew Point: -1°C
Humidity: 34%
Barometer: 1014 hPa
Clouds: Clear
Visibility: 10 km
2018/05/22 02:30 YMLT 220230Z AUTO 25015KT 9999 // NCD 15/M01 Q1014 RF00.0/000.0
 
YMML - Melbourne Intl A, Australia
Distance from Franklin: NNW 631km
Updated: 22/05/2018 12:30
Mostly cloudy
Mostly cloudy
 Wind from SW
Wind: SW 24 km/h
Temperature: 15°C
Dew Point: 11°C
Humidity: 77%
Barometer: 1024 hPa
Clouds: Mostly cloudy
Visibility: 10 km
Cloud details: Mostly cloudy 579 m
2018/05/22 02:30 YMML 220230Z 23013KT 9999 BKN019 15/11 Q1024 FM0230 MOD TURB BLW 5000FT
YSCB - Canberra (civ/Mi, Australia
Distance from Franklin: NNE 888km
Updated: 22/05/2018 12:30
Partly cloudy
Partly cloudy
 Wind from NW
Wind: NW 24 km/h
Temperature: 17°C
Dew Point: 6°C
Humidity: 49%
Barometer: 1019 hPa
Clouds: Partly cloudy
Visibility: 10 km
Cloud details: Few Clouds 762 m
Partly cloudy 5791 m
2018/05/22 02:30 YSCB 220230Z 31013KT 9999 FEW025 SCT190 17/06 Q1019 FM0230 MOD TURB BLW 5000FT TILL 0400
 
YSSY - Sydney Intl Airp, Australia
Distance from Franklin: NNE 1083km
Updated: 01/01/1970 11:00
NOT Current
unable to load YSSY data RC=404 Not Found
unable to load YSSY data RC=404 Not Found
 
YPAD - Adelaide Intl Ar, Australia
Distance from Franklin: NW 1166km
Updated: 22/05/2018 12:30
Overcast
Overcast
 Wind from SW
Wind: SW 20 km/h
Temperature: 17°C
Dew Point: 9°C
Humidity: 59%
Barometer: 1031 hPa
Clouds: Overcast
Visibility: 10 km
Cloud details: Partly cloudy 1067 m
Overcast 1311 m
2018/05/22 02:30 YPAD 220230Z 23011KT 9999 SCT035 OVC043 17/09 Q1031 NOSIG
 
YBBN - Brisbane Intl Ar, Australia
Distance from Franklin: NNE 1836km
Updated: 22/05/2018 12:30
Clear
Clear
 Wind from W
Wind: W 17 km/h
Temperature: 22°C
Dew Point: 5°C
Humidity: 33%
Barometer: 1018 hPa
Summary: Clear
Visibility: greater than 10 km
2018/05/22 02:30 YBBN 220230Z 27009KT CAVOK 22/05 Q1018 FM0400 05007KT CAVOK
YBMK - Mackay, Australia
Distance from Franklin: N 2456km
Updated: 22/05/2018 12:00
Clear
Clear
 Wind from SSE
Wind: SSE 28 km/h
Temperature: 24°C
Dew Point: 6°C
Humidity: 31%
Barometer: 1020 hPa
Clouds: Clear
Visibility: 10 km
2018/05/22 02:00 YBMK 220200Z AUTO 15015KT 9999 // NCD 24/06 Q1020
 
YBAS - Alice Springs Ar, Australia
Distance from Franklin: NNW 2462km
Updated: 22/05/2018 12:30
Clear
Clear
 Wind from E
Wind: E 35 km/h
Temperature: 19°C
Dew Point: 2°C
Humidity: 32%
Barometer: 1027 hPa
Clouds: Clear
Visibility: 10 km
2018/05/22 02:30 YBAS 220230Z AUTO 09019KT 9999 // NCD 19/02 Q1027 RF00.0/000.0
YBTL - Townsville(Civ/M, Australia
Distance from Franklin: N 2655km
Updated: 22/05/2018 12:30
Clear
Clear
 Wind from SW
Wind: SW 9 km/h
Temperature: 26°C
Dew Point: 2°C
Humidity: 21%
Barometer: 1019 hPa
Summary: Clear
Visibility: greater than 10 km
2018/05/22 02:30 YBTL 220230Z 23005KT 200V270 CAVOK 26/02 Q1019 NOSIG
 
YBCS - Cairns Airport, Australia
Distance from Franklin: N 2923km
Updated: 22/05/2018 12:30
Mostly cloudy
Mostly cloudy
 Wind from SE
Wind: SE 33 km/h
Temperature: 25°C
Dew Point: 16°C
Humidity: 57%
Barometer: 1017 hPa
Clouds: Mostly cloudy
Visibility: 10 km
Cloud details: Few Clouds 914 m
Mostly cloudy 1829 m
2018/05/22 02:30 YBCS 220230Z 14018KT 9999 FEW030 BKN060 25/16 Q1017 NOSIG
YPPH - Perth Intl/Belmo, Australia
Distance from Franklin: WNW 2982km
Updated: 22/05/2018 12:30
Clear
Clear
 Wind from NE
Wind: NE 26 km/h
Temperature: 23°C
Dew Point: 2°C
Humidity: 25%
Barometer: 1023 hPa
Summary: Clear
Visibility: greater than 10 km
2018/05/22 02:30 YPPH 220230Z 04014KT CAVOK 23/02 Q1023 NOSIG
 
YPDN - Darwin (civ/Mil), Australia
Distance from Franklin: NNW 3749km
Updated: 22/05/2018 12:30
Clear
Clear
 Wind from E
Wind: E 24 km/h
Temperature: 30°C
Dew Point: 13°C
Humidity: 35%
Barometer: 1013 hPa
Summary: Clear
Visibility: greater than 10 km
2018/05/22 02:30 YPDN 220230Z 10013KT CAVOK 30/13 Q1013 FM0230 MOD TURB BLW 5000FT TILL 0400
YBWX - Barrow Island, Australia
Distance from Franklin: NW 3832km
Updated: 01/01/1970 11:00
NOT Current
unable to load YBWX data RC=404 Not Found
unable to load YBWX data RC=404 Not Found